sensor_id;sensor_type;location;lat;lon;timestamp;P1;durP1;ratioP1;P2;durP2;ratioP2
7941;SDS011;4016;50.758;7.150;2022-09-01T00:04:00;3.50;;;3.20;;
7941;SDS011;4016;50.758;7.150;2022-09-01T00:09:03;3.00;;;2.80;;
7941;SDS011;4016;50.758;7.150;2022-09-01T00:14:06;3.30;;;3.10;;
7941;SDS011;4016;50.758;7.150;2022-09-01T00:19:08;3.03;;;2.83;;
7941;SDS011;4016;50.758;7.150;2022-09-01T00:24:09;3.30;;;3.10;;
7941;SDS011;4016;50.758;7.150;2022-09-01T00:29:11;3.80;;;3.50;;
7941;SDS011;4016;50.758;7.150;2022-09-01T00:34:11;3.50;;;3.20;;
7941;SDS011;4016;50.758;7.150;2022-09-01T00:39:13;5.50;;;3.50;;
7941;SDS011;4016;50.758;7.150;2022-09-01T00:44:15;3.07;;;2.87;;
7941;SDS011;4016;50.758;7.150;2022-09-01T00:49:19;3.30;;;3.00;;
7941;SDS011;4016;50.758;7.150;2022-09-01T00:54:21;3.20;;;3.00;;
7941;SDS011;4016;50.758;7.150;2022-09-01T00:59:25;3.50;;;3.20;;
7941;SDS011;4016;50.758;7.150;2022-09-01T01:04:26;3.30;;;3.00;;
7941;SDS011;4016;50.758;7.150;2022-09-01T01:09:31;3.30;;;3.10;;
7941;SDS011;4016;50.758;7.150;2022-09-01T01:14:34;5.07;;;3.37;;
7941;SDS011;4016;50.758;7.150;2022-09-01T01:19:40;3.00;;;2.80;;
7941;SDS011;4016;50.758;7.150;2022-09-01T01:25:01;3.33;;;3.03;;
7941;SDS011;4016;50.758;7.150;2022-09-01T01:30:02;3.13;;;2.93;;
7941;SDS011;4016;50.758;7.150;2022-09-01T01:35:05;2.87;;;2.67;;
7941;SDS011;4016;50.758;7.150;2022-09-01T01:40:06;3.70;;;3.40;;
7941;SDS011;4016;50.758;7.150;2022-09-01T01:45:15;3.20;;;3.00;;
7941;SDS011;4016;50.758;7.150;2022-09-01T01:50:25;3.47;;;3.17;;
7941;SDS011;4016;50.758;7.150;2022-09-01T01:55:28;3.27;;;3.07;;
7941;SDS011;4016;50.758;7.150;2022-09-01T02:00:31;3.40;;;3.10;;
7941;SDS011;4016;50.758;7.150;2022-09-01T02:05:34;3.50;;;3.20;;
7941;SDS011;4016;50.758;7.150;2022-09-01T02:10:37;3.50;;;3.27;;
7941;SDS011;4016;50.758;7.150;2022-09-01T02:15:42;3.57;;;3.27;;
7941;SDS011;4016;50.758;7.150;2022-09-01T02:20:48;3.57;;;3.27;;
7941;SDS011;4016;50.758;7.150;2022-09-01T02:25:54;3.23;;;3.03;;
7941;SDS011;4016;50.758;7.150;2022-09-01T02:30:59;3.30;;;3.10;;
7941;SDS011;4016;50.758;7.150;2022-09-01T02:36:02;3.00;;;2.80;;
7941;SDS011;4016;50.758;7.150;2022-09-01T02:41:05;3.30;;;3.00;;
7941;SDS011;4016;50.758;7.150;2022-09-01T02:46:06;3.87;;;3.33;;
7941;SDS011;4016;50.758;7.150;2022-09-01T02:51:11;3.30;;;3.07;;
7941;SDS011;4016;50.758;7.150;2022-09-01T02:56:13;2.90;;;2.70;;
7941;SDS011;4016;50.758;7.150;2022-09-01T03:01:16;3.73;;;3.33;;
7941;SDS011;4016;50.758;7.150;2022-09-01T03:06:21;2.90;;;2.70;;
7941;SDS011;4016;50.758;7.150;2022-09-01T03:11:23;3.30;;;3.00;;
7941;SDS011;4016;50.758;7.150;2022-09-01T03:16:23;3.50;;;3.20;;
7941;SDS011;4016;50.758;7.150;2022-09-01T03:21:24;3.30;;;3.00;;
7941;SDS011;4016;50.758;7.150;2022-09-01T03:26:24;3.10;;;2.90;;
7941;SDS011;4016;50.758;7.150;2022-09-01T03:31:25;3.43;;;3.13;;
7941;SDS011;4016;50.758;7.150;2022-09-01T03:36:26;3.13;;;2.90;;
7941;SDS011;4016;50.758;7.150;2022-09-01T03:41:28;4.03;;;3.20;;
7941;SDS011;4016;50.758;7.150;2022-09-01T03:46:29;3.57;;;3.27;;
7941;SDS011;4016;50.758;7.150;2022-09-01T03:51:30;3.57;;;3.13;;
7941;SDS011;4016;50.758;7.150;2022-09-01T03:56:31;3.33;;;3.03;;
7941;SDS011;4016;50.758;7.150;2022-09-01T04:01:32;3.67;;;3.10;;
7941;SDS011;4016;50.758;7.150;2022-09-01T04:06:39;3.13;;;2.93;;
7941;SDS011;4016;50.758;7.150;2022-09-01T04:11:40;3.30;;;3.00;;
7941;SDS011;4016;50.758;7.150;2022-09-01T04:16:42;3.20;;;3.00;;
7941;SDS011;4016;50.758;7.150;2022-09-01T04:22:02;3.27;;;3.00;;
7941;SDS011;4016;50.758;7.150;2022-09-01T04:27:03;4.17;;;3.20;;
7941;SDS011;4016;50.758;7.150;2022-09-01T04:32:07;2.97;;;2.77;;
7941;SDS011;4016;50.758;7.150;2022-09-01T04:37:15;3.67;;;3.37;;
7941;SDS011;4016;50.758;7.150;2022-09-01T04:42:18;3.27;;;3.07;;
7941;SDS011;4016;50.758;7.150;2022-09-01T04:47:22;3.73;;;3.20;;
7941;SDS011;4016;50.758;7.150;2022-09-01T04:52:29;3.20;;;2.93;;
7941;SDS011;4016;50.758;7.150;2022-09-01T04:57:30;3.40;;;3.10;;
7941;SDS011;4016;50.758;7.150;2022-09-01T05:02:31;3.50;;;3.20;;
7941;SDS011;4016;50.758;7.150;2022-09-01T05:07:31;4.50;;;3.50;;
7941;SDS011;4016;50.758;7.150;2022-09-01T05:12:32;3.50;;;3.20;;
7941;SDS011;4016;50.758;7.150;2022-09-01T05:17:34;3.30;;;2.97;;
7941;SDS011;4016;50.758;7.150;2022-09-01T05:22:37;3.13;;;2.93;;
7941;SDS011;4016;50.758;7.150;2022-09-01T05:27:40;2.90;;;2.70;;
7941;SDS011;4016;50.758;7.150;2022-09-01T05:32:44;3.50;;;3.20;;
7941;SDS011;4016;50.758;7.150;2022-09-01T05:37:47;3.70;;;3.23;;
7941;SDS011;4016;50.758;7.150;2022-09-01T05:42:50;4.33;;;3.50;;
7941;SDS011;4016;50.758;7.150;2022-09-01T05:47:52;4.07;;;3.67;;
7941;SDS011;4016;50.758;7.150;2022-09-01T05:52:53;3.77;;;3.47;;
7941;SDS011;4016;50.758;7.150;2022-09-01T05:57:54;3.87;;;3.57;;
7941;SDS011;4016;50.758;7.150;2022-09-01T06:02:56;3.30;;;3.00;;
7941;SDS011;4016;50.758;7.150;2022-09-01T06:07:57;3.50;;;3.20;;
7941;SDS011;4016;50.758;7.150;2022-09-01T06:12:57;3.67;;;2.97;;
7941;SDS011;4016;50.758;7.150;2022-09-01T06:18:01;3.40;;;2.67;;
7941;SDS011;4016;50.758;7.150;2022-09-01T06:23:01;3.10;;;2.90;;
7941;SDS011;4016;50.758;7.150;2022-09-01T06:28:02;3.00;;;2.80;;
7941;SDS011;4016;50.758;7.150;2022-09-01T06:33:03;3.10;;;2.90;;
7941;SDS011;4016;50.758;7.150;2022-09-01T06:38:08;3.57;;;2.60;;
7941;SDS011;4016;50.758;7.150;2022-09-01T06:43:11;3.87;;;3.03;;
7941;SDS011;4016;50.758;7.150;2022-09-01T06:48:15;2.83;;;2.60;;
7941;SDS011;4016;50.758;7.150;2022-09-01T06:53:16;2.90;;;2.40;;
7941;SDS011;4016;50.758;7.150;2022-09-01T06:58:17;2.60;;;2.40;;
7941;SDS011;4016;50.758;7.150;2022-09-01T07:03:18;4.80;;;2.47;;
7941;SDS011;4016;50.758;7.150;2022-09-01T07:08:18;2.20;;;2.10;;
7941;SDS011;4016;50.758;7.150;2022-09-01T07:13:21;2.50;;;2.30;;
7941;SDS011;4016;50.758;7.150;2022-09-01T07:18:24;2.80;;;2.60;;
7941;SDS011;4016;50.758;7.150;2022-09-01T07:23:26;2.67;;;2.47;;
7941;SDS011;4016;50.758;7.150;2022-09-01T07:28:29;2.43;;;2.23;;
7941;SDS011;4016;50.758;7.150;2022-09-01T07:33:31;1.98;;;1.88;;
7941;SDS011;4016;50.758;7.150;2022-09-01T07:38:32;2.78;;;2.10;;
7941;SDS011;4016;50.758;7.150;2022-09-01T07:43:33;1.88;;;1.77;;
7941;SDS011;4016;50.758;7.150;2022-09-01T07:48:33;2.22;;;2.10;;
7941;SDS011;4016;50.758;7.150;2022-09-01T07:53:34;2.22;;;2.03;;
7941;SDS011;4016;50.758;7.150;2022-09-01T07:58:35;2.10;;;1.90;;
7941;SDS011;4016;50.758;7.150;2022-09-01T08:03:37;1.90;;;1.73;;
7941;SDS011;4016;50.758;7.150;2022-09-01T08:08:39;2.75;;;2.05;;
7941;SDS011;4016;50.758;7.150;2022-09-01T08:13:40;2.30;;;2.10;;
7941;SDS011;4016;50.758;7.150;2022-09-01T08:18:41;2.25;;;2.08;;
7941;SDS011;4016;50.758;7.150;2022-09-01T08:23:43;2.08;;;1.98;;
7941;SDS011;4016;50.758;7.150;2022-09-01T08:28:43;2.25;;;2.15;;
7941;SDS011;4016;50.758;7.150;2022-09-01T08:33:46;2.10;;;2.00;;
7941;SDS011;4016;50.758;7.150;2022-09-01T08:38:47;2.10;;;2.00;;
7941;SDS011;4016;50.758;7.150;2022-09-01T08:43:55;2.95;;;2.30;;
7941;SDS011;4016;50.758;7.150;2022-09-01T08:49:28;2.13;;;2.03;;
7941;SDS011;4016;50.758;7.150;2022-09-01T08:59:55;2.15;;;1.98;;
7941;SDS011;4016;50.758;7.150;2022-09-01T09:20:17;2.40;;;2.28;;
7941;SDS011;4016;50.758;7.150;2022-09-01T09:25:17;2.60;;;2.40;;
7941;SDS011;4016;50.758;7.150;2022-09-01T09:40:54;2.10;;;2.00;;
7941;SDS011;4016;50.758;7.150;2022-09-01T09:51:20;2.20;;;2.10;;
7941;SDS011;4016;50.758;7.150;2022-09-01T09:56:21;2.42;;;2.22;;
7941;SDS011;4016;50.758;7.150;2022-09-01T10:01:28;2.70;;;2.03;;
7941;SDS011;4016;50.758;7.150;2022-09-01T10:11:36;2.78;;;2.58;;
7941;SDS011;4016;50.758;7.150;2022-09-01T10:16:39;2.60;;;2.40;;
7941;SDS011;4016;50.758;7.150;2022-09-01T10:21:42;2.58;;;2.38;;
7941;SDS011;4016;50.758;7.150;2022-09-01T10:26:48;3.00;;;2.70;;
7941;SDS011;4016;50.758;7.150;2022-09-01T10:31:52;2.40;;;2.30;;
7941;SDS011;4016;50.758;7.150;2022-09-01T10:36:54;2.90;;;2.70;;
7941;SDS011;4016;50.758;7.150;2022-09-01T10:41:55;5.32;;;3.00;;
7941;SDS011;4016;50.758;7.150;2022-09-01T10:47:10;3.42;;;3.00;;
7941;SDS011;4016;50.758;7.150;2022-09-01T10:57:43;3.00;;;2.80;;
7941;SDS011;4016;50.758;7.150;2022-09-01T11:08:20;2.72;;;2.53;;
7941;SDS011;4016;50.758;7.150;2022-09-01T11:18:40;2.90;;;2.70;;
7941;SDS011;4016;50.758;7.150;2022-09-01T11:23:41;4.25;;;3.00;;
7941;SDS011;4016;50.758;7.150;2022-09-01T11:28:42;3.03;;;2.83;;
7941;SDS011;4016;50.758;7.150;2022-09-01T11:38:50;2.75;;;2.58;;
7941;SDS011;4016;50.758;7.150;2022-09-01T11:43:54;3.08;;;2.88;;
7941;SDS011;4016;50.758;7.150;2022-09-01T11:49:02;3.10;;;2.90;;
7941;SDS011;4016;50.758;7.150;2022-09-01T11:54:07;2.85;;;2.70;;
7941;SDS011;4016;50.758;7.150;2022-09-01T11:59:09;3.30;;;3.10;;
7941;SDS011;4016;50.758;7.150;2022-09-01T12:04:25;3.50;;;3.20;;
7941;SDS011;4016;50.758;7.150;2022-09-01T12:09:37;3.40;;;3.10;;
7941;SDS011;4016;50.758;7.150;2022-09-01T12:14:42;4.88;;;3.30;;
7941;SDS011;4016;50.758;7.150;2022-09-01T12:19:55;3.05;;;2.85;;
7941;SDS011;4016;50.758;7.150;2022-09-01T12:24:55;3.30;;;3.00;;
7941;SDS011;4016;50.758;7.150;2022-09-01T12:29:55;3.33;;;3.03;;
7941;SDS011;4016;50.758;7.150;2022-09-01T12:34:59;3.20;;;3.00;;
7941;SDS011;4016;50.758;7.150;2022-09-01T12:40:01;3.45;;;3.15;;
7941;SDS011;4016;50.758;7.150;2022-09-01T12:50:05;3.35;;;3.05;;
7941;SDS011;4016;50.758;7.150;2022-09-01T12:55:11;3.33;;;3.13;;
7941;SDS011;4016;50.758;7.150;2022-09-01T13:05:23;3.70;;;3.40;;
7941;SDS011;4016;50.758;7.150;2022-09-01T13:10:26;2.97;;;2.78;;
7941;SDS011;4016;50.758;7.150;2022-09-01T13:15:31;3.38;;;3.08;;
7941;SDS011;4016;50.758;7.150;2022-09-01T13:20:32;3.22;;;3.00;;
7941;SDS011;4016;50.758;7.150;2022-09-01T13:25:32;3.30;;;3.00;;
7941;SDS011;4016;50.758;7.150;2022-09-01T13:30:33;3.25;;;3.05;;
7941;SDS011;4016;50.758;7.150;2022-09-01T13:35:34;3.75;;;3.42;;
7941;SDS011;4016;50.758;7.150;2022-09-01T13:40:34;3.25;;;3.05;;
7941;SDS011;4016;50.758;7.150;2022-09-01T13:45:34;4.10;;;3.10;;
7941;SDS011;4016;50.758;7.150;2022-09-01T13:50:36;3.35;;;3.13;;
7941;SDS011;4016;50.758;7.150;2022-09-01T13:55:38;3.40;;;3.10;;
7941;SDS011;4016;50.758;7.150;2022-09-01T14:00:44;3.38;;;3.10;;
7941;SDS011;4016;50.758;7.150;2022-09-01T14:05:46;3.60;;;3.30;;
7941;SDS011;4016;50.758;7.150;2022-09-01T14:10:48;3.67;;;3.38;;
7941;SDS011;4016;50.758;7.150;2022-09-01T14:15:50;3.58;;;3.28;;
7941;SDS011;4016;50.758;7.150;2022-09-01T14:20:52;3.55;;;3.25;;
7941;SDS011;4016;50.758;7.150;2022-09-01T14:25:55;3.28;;;3.08;;
7941;SDS011;4016;50.758;7.150;2022-09-01T14:30:57;3.53;;;3.22;;
7941;SDS011;4016;50.758;7.150;2022-09-01T14:35:58;3.10;;;2.90;;
7941;SDS011;4016;50.758;7.150;2022-09-01T14:40:59;3.80;;;3.30;;
7941;SDS011;4016;50.758;7.150;2022-09-01T14:46:04;3.08;;;2.88;;
7941;SDS011;4016;50.758;7.150;2022-09-01T14:51:06;3.00;;;2.80;;
7941;SDS011;4016;50.758;7.150;2022-09-01T14:56:08;3.30;;;3.10;;
7941;SDS011;4016;50.758;7.150;2022-09-01T15:01:09;4.05;;;2.83;;
7941;SDS011;4016;50.758;7.150;2022-09-01T15:06:11;2.97;;;2.78;;
7941;SDS011;4016;50.758;7.150;2022-09-01T15:11:15;3.25;;;3.05;;
7941;SDS011;4016;50.758;7.150;2022-09-01T15:16:18;3.60;;;3.30;;
7941;SDS011;4016;50.758;7.150;2022-09-01T15:21:27;3.13;;;2.90;;
7941;SDS011;4016;50.758;7.150;2022-09-01T15:26:32;3.72;;;3.42;;
7941;SDS011;4016;50.758;7.150;2022-09-01T15:31:34;3.30;;;3.00;;
7941;SDS011;4016;50.758;7.150;2022-09-01T15:36:35;3.10;;;2.88;;
7941;SDS011;4016;50.758;7.150;2022-09-01T15:41:42;3.03;;;2.83;;
7941;SDS011;4016;50.758;7.150;2022-09-01T15:46:42;2.95;;;2.75;;
7941;SDS011;4016;50.758;7.150;2022-09-01T15:51:44;2.90;;;2.70;;
7941;SDS011;4016;50.758;7.150;2022-09-01T15:56:45;2.65;;;2.50;;
7941;SDS011;4016;50.758;7.150;2022-09-01T16:01:46;2.63;;;2.53;;
7941;SDS011;4016;50.758;7.150;2022-09-01T16:06:46;2.95;;;2.75;;
7941;SDS011;4016;50.758;7.150;2022-09-01T16:11:48;2.70;;;2.50;;
7941;SDS011;4016;50.758;7.150;2022-09-01T16:27:16;3.10;;;2.90;;
7941;SDS011;4016;50.758;7.150;2022-09-01T16:32:18;3.15;;;2.85;;
7941;SDS011;4016;50.758;7.150;2022-09-01T16:37:40;2.92;;;2.72;;
7941;SDS011;4016;50.758;7.150;2022-09-01T16:42:55;3.13;;;2.83;;
7941;SDS011;4016;50.758;7.150;2022-09-01T16:59:22;2.58;;;2.38;;
7941;SDS011;4016;50.758;7.150;2022-09-01T17:09:42;2.90;;;2.70;;
7941;SDS011;4016;50.758;7.150;2022-09-01T17:14:45;2.85;;;2.65;;
7941;SDS011;4016;50.758;7.150;2022-09-01T17:19:50;2.80;;;2.60;;
7941;SDS011;4016;50.758;7.150;2022-09-01T17:25:14;3.40;;;2.97;;
7941;SDS011;4016;50.758;7.150;2022-09-01T17:30:27;2.55;;;2.35;;
7941;SDS011;4016;50.758;7.150;2022-09-01T17:41:15;3.03;;;2.83;;
7941;SDS011;4016;50.758;7.150;2022-09-01T17:46:26;2.65;;;2.45;;
7941;SDS011;4016;50.758;7.150;2022-09-01T17:51:52;2.90;;;2.70;;
7941;SDS011;4016;50.758;7.150;2022-09-01T18:13:25;2.67;;;2.58;;
7941;SDS011;4016;50.758;7.150;2022-09-01T18:18:36;2.75;;;2.55;;
7941;SDS011;4016;50.758;7.150;2022-09-01T18:23:40;2.50;;;2.33;;
7941;SDS011;4016;50.758;7.150;2022-09-01T18:28:42;2.53;;;2.40;;
7941;SDS011;4016;50.758;7.150;2022-09-01T18:39:14;3.88;;;2.50;;
7941;SDS011;4016;50.758;7.150;2022-09-01T18:44:30;2.53;;;2.30;;
7941;SDS011;4016;50.758;7.150;2022-09-01T18:49:45;2.70;;;2.50;;
7941;SDS011;4016;50.758;7.150;2022-09-01T19:00:18;4.60;;;3.42;;
7941;SDS011;4016;50.758;7.150;2022-09-01T19:10:43;2.90;;;2.70;;
7941;SDS011;4016;50.758;7.150;2022-09-01T19:15:54;2.90;;;2.70;;
7941;SDS011;4016;50.758;7.150;2022-09-01T19:26:23;2.80;;;2.60;;
7941;SDS011;4016;50.758;7.150;2022-09-01T19:31:32;3.22;;;3.00;;
7941;SDS011;4016;50.758;7.150;2022-09-01T19:36:37;2.40;;;2.30;;
7941;SDS011;4016;50.758;7.150;2022-09-01T19:41:44;2.67;;;2.47;;
7941;SDS011;4016;50.758;7.150;2022-09-01T19:46:48;2.95;;;2.70;;
7941;SDS011;4016;50.758;7.150;2022-09-01T20:02:18;2.80;;;2.60;;
7941;SDS011;4016;50.758;7.150;2022-09-01T20:12:40;2.58;;;2.38;;
7941;SDS011;4016;50.758;7.150;2022-09-01T20:17:48;2.50;;;2.33;;
7941;SDS011;4016;50.758;7.150;2022-09-01T20:28:38;2.70;;;2.50;;
7941;SDS011;4016;50.758;7.150;2022-09-01T20:45:04;3.33;;;2.60;;
7941;SDS011;4016;50.758;7.150;2022-09-01T20:50:10;2.53;;;2.30;;
7941;SDS011;4016;50.758;7.150;2022-09-01T21:00:22;2.72;;;2.53;;
7941;SDS011;4016;50.758;7.150;2022-09-01T21:05:28;2.60;;;2.40;;
7941;SDS011;4016;50.758;7.150;2022-09-01T21:21:02;2.47;;;2.35;;
7941;SDS011;4016;50.758;7.150;2022-09-01T21:26:24;2.83;;;2.63;;
7941;SDS011;4016;50.758;7.150;2022-09-01T21:31:24;2.70;;;2.28;;
7941;SDS011;4016;50.758;7.150;2022-09-01T21:36:25;2.47;;;2.28;;
7941;SDS011;4016;50.758;7.150;2022-09-01T21:41:25;2.15;;;2.05;;
7941;SDS011;4016;50.758;7.150;2022-09-01T21:46:25;2.35;;;2.15;;
7941;SDS011;4016;50.758;7.150;2022-09-01T21:51:26;2.33;;;2.22;;
7941;SDS011;4016;50.758;7.150;2022-09-01T21:56:27;2.50;;;2.30;;
7941;SDS011;4016;50.758;7.150;2022-09-01T22:01:27;2.28;;;2.08;;
7941;SDS011;4016;50.758;7.150;2022-09-01T22:06:30;2.70;;;2.50;;
7941;SDS011;4016;50.758;7.150;2022-09-01T22:11:31;2.85;;;2.20;;
7941;SDS011;4016;50.758;7.150;2022-09-01T22:16:31;3.28;;;2.38;;
7941;SDS011;4016;50.758;7.150;2022-09-01T22:21:32;2.05;;;1.95;;
7941;SDS011;4016;50.758;7.150;2022-09-01T22:26:33;2.40;;;2.20;;
7941;SDS011;4016;50.758;7.150;2022-09-01T22:31:35;2.50;;;2.30;;
7941;SDS011;4016;50.758;7.150;2022-09-01T22:36:39;2.00;;;1.90;;
7941;SDS011;4016;50.758;7.150;2022-09-01T22:41:42;2.25;;;2.08;;
7941;SDS011;4016;50.758;7.150;2022-09-01T22:46:42;2.60;;;2.40;;
7941;SDS011;4016;50.758;7.150;2022-09-01T22:51:43;2.55;;;2.35;;
7941;SDS011;4016;50.758;7.150;2022-09-01T22:56:44;2.42;;;2.22;;
7941;SDS011;4016;50.758;7.150;2022-09-01T23:01:45;2.58;;;2.00;;
7941;SDS011;4016;50.758;7.150;2022-09-01T23:06:47;4.05;;;2.30;;
7941;SDS011;4016;50.758;7.150;2022-09-01T23:11:48;2.20;;;2.00;;
7941;SDS011;4016;50.758;7.150;2022-09-01T23:16:49;2.13;;;2.03;;
7941;SDS011;4016;50.758;7.150;2022-09-01T23:21:50;2.40;;;2.20;;
7941;SDS011;4016;50.758;7.150;2022-09-01T23:26:51;2.38;;;2.17;;
7941;SDS011;4016;50.758;7.150;2022-09-01T23:31:52;2.40;;;2.20;;
7941;SDS011;4016;50.758;7.150;2022-09-01T23:36:52;2.00;;;1.90;;
7941;SDS011;4016;50.758;7.150;2022-09-01T23:41:52;2.13;;;2.03;;
7941;SDS011;4016;50.758;7.150;2022-09-01T23:46:53;2.10;;;2.00;;
7941;SDS011;4016;50.758;7.150;2022-09-01T23:51:53;2.22;;;2.13;;
7941;SDS011;4016;50.758;7.150;2022-09-01T23:56:54;2.20;;;2.10;;
